Flight Track Log - Related Links

Times and Time Zones

All times are in EDT time to prevent confusion due to time zone crossing. See the CPT1940 flight status page for this flight to view local times or setup timezone preferences in your user account.


Time Position Orientation Groundspeed Altitude Reporting Facility
EDT Latitude Longitude Course Direction KTS MPH feet Rate Location/Type
Wed 02:28:26 PM 41.6008 -109.0789 55° Northeast 123 142 7,400  Level Salt Lake Center
Wed 02:29:28 PM 41.6300 -109.0400 45° Northeast 146 168 8,600 1,113 Climbing Salt Lake Center
Wed 02:30:30 PM 41.6525 -108.9992 54° Northeast 145 167 9,700 1,016 Climbing Salt Lake Center
Wed 02:31:32 PM 41.6747 -108.9569 55° Northeast 144 166 10,700 1,065 Climbing Salt Lake Center
Wed 02:32:00 PM 41.7661 -108.7374 55° Northeast  Level Estimated
Wed 02:32:34 PM 41.6989 -108.9069 57° Northeast 144 166 11,900  Level Salt Lake Center
Wed 02:33:00 PM 41.7905 -108.6902 55° Northeast  Level FlightAware Approximate
Wed 02:33:36 PM 41.7200 -108.8653 56° Northeast 142 163 12,700  Level Salt Lake Center
Wed 02:34:38 PM 41.7469 -108.8144 55° Northeast 145 167 13,000 145 Climbing Salt Lake Center
Wed 02:35:40 PM 41.7739 -108.7636 55° Northeast 160 184 13,000  Level Salt Lake Center
Wed 02:36:42 PM 41.8044 -108.7028 56° Northeast 171 197 13,000  Level Salt Lake Center
Wed 02:37:44 PM 41.8308 -108.6514 55° Northeast 173 199 13,000  Level Salt Lake Center
Wed 02:38:46 PM 41.8614 -108.5922 55° Northeast 174 200 13,000  Level Salt Lake Center
Wed 02:39:48 PM 41.8878 -108.5408 55° Northeast 174 200 13,000  Level Salt Lake Center
Wed 02:40:50 PM 41.9181 -108.4817 55° Northeast 173 199 13,000  Level Salt Lake Center
Wed 02:41:52 PM 41.9442 -108.4300 56° Northeast 174 200 13,000  Level Salt Lake Center
Wed 02:42:54 PM 41.9750 -108.3694 56° Northeast 175 201 13,000  Level Salt Lake Center
Wed 02:43:56 PM 42.0014 -108.3183 55° Northeast 174 200 13,000  Level Salt Lake Center
Wed 02:44:58 PM 42.0308 -108.2558 58° Northeast 176 203 13,000  Level Salt Lake Center
Wed 02:46:00 PM 42.0575 -108.2033 56° Northeast 177 204 13,000  Level Salt Lake Center
Wed 02:47:02 PM 42.0847 -108.1519 54° Northeast 176 203 13,000  Level Salt Lake Center
Wed 02:48:04 PM 42.1150 -108.0906 56° Northeast 177 204 13,000  Level Salt Lake Center
Wed 02:49:07 PM 42.1408 -108.0392 56° Northeast 175 201 13,000  Level Salt Lake Center
Wed 02:50:09 PM 42.1708 -107.9794 56° Northeast 173 199 13,000 48 Level Salt Lake Center
Wed 02:51:11 PM 42.1967 -107.9286 56° Northeast 173 199 13,100 48 Climbing Salt Lake Center
Wed 02:52:13 PM 42.2261 -107.8678 57° Northeast 173 199 13,100  Level Salt Lake Center
Wed 02:53:15 PM 42.2500 -107.8139 59° Northeast 174 200 13,100  Level Salt Lake Center
Wed 02:54:17 PM 42.2797 -107.7533 56° Northeast 174 200 13,100  Level Salt Lake Center
Wed 02:55:19 PM 42.3061 -107.7011 56° Northeast 175 201 13,100  Level Salt Lake Center
Wed 02:56:21 PM 42.3367 -107.6417 55° Northeast 173 199 13,100  Level Salt Lake Center
Wed 02:57:17 PM 42.3625 -107.5892 56° Northeast 174 200 13,100  Level Denver Center
Wed 02:58:19 PM 42.3878 -107.5372 57° Northeast 173 199 13,100  Level Denver Center
Wed 02:59:21 PM 42.4172 -107.4756 57° Northeast 174 200 13,100  Level Denver Center
Wed 03:00:23 PM 42.4444 -107.4236 55° Northeast 176 203 13,100  Level Denver Center
Wed 03:01:25 PM 42.4700 -107.3725 56° Northeast 173 199 13,100 -46 Level Denver Center
Wed 03:02:33 PM 42.5028 -107.3031 57° Northeast 172 198 13,000 -46 Descending Salt Lake Center
Wed 03:03:35 PM 42.5272 -107.2506 58° Northeast 172 198 13,000  Level Salt Lake Center
Wed 03:04:37 PM 42.5553 -107.1914 57° Northeast 169 194 13,000  Level Salt Lake Center
Wed 03:05:39 PM 42.5803 -107.1411 56° Northeast 168 193 13,000  Level Salt Lake Center
Wed 03:06:35 PM 42.6061 -107.0906 55° Northeast 168 193 13,000  Level Denver Center
Wed 03:07:37 PM 42.6325 -107.0347 57° Northeast 168 193 13,000 -290 Level Denver Center
Wed 03:08:39 PM 42.6433 -106.9725 77° East 182 209 12,400 -774 Descending Denver Center
Wed 03:09:41 PM 42.6481 -106.9003 85° East 188 216 11,400 -532 Descending Denver Center
Wed 03:10:43 PM 42.6536 -106.8347 83° East 188 216 11,300 -97 Descending Denver Center
Wed 03:12:00 PM 42.7023 -106.8004 27° Northeast  Level FlightAware Approximate
Wed 03:19:00 PM 42.8900 -106.4751 61° Northeast  Level FlightAware Approximate
Wed 03:20:00 PM 42.9000 -106.4500 61° Northeast  Level FlightAware Approximate
Wed 03:21:00 PM 42.9080 -106.4644 61° Northeast  Level Estimated
Wed 03:22:00 PM 42.9080 -106.4644 61° Northeast  Level Estimated
Wed 03:23:00 PM 42.9080 -106.4644 61° Northeast  Level Estimated
Wed 03:24:00 PM 42.9080 -106.4644 61° Northeast  Level Estimated
Wed 03:25:00 PM 42.9080 -106.4644 61° Northeast  Level Estimated
Wed 03:26:00 PM 42.9080 -106.4644 61° Northeast  Level Estimated

Login

Don't have an account? Register now (free) for customized features, flight alerts, and more!